PWSweather.com
Personal Weather Stations
Station Observations
ITMONS57
Monasterolo T.se, CafasseIT 10070

Monasterolo T.seCafasseIT 10070

Lat: 45.23621, Lon: 7.50671

Elevation: 1574.8

Station Type: LA CROSSE WS 2350

Latest ConditionsUpdated 5:15:04 AM GMT+01:01 Saturday, Feb 24, 2018
Currently Today's Max Today's Min Today's Average
Temperature 32.7°F0.4°C 32.9°F0.5°C 31.8°F-0.1°C 32.4°F0.2°C
Dew Point 30.9°F-0.6°C 31.1°F-0.5°C 29.7°F-1.3°C 30.6°F-0.8°C
Winds Calm Calm Calm ECalm E - Calm Calm
Wind Gusts -- 28.0 mph45.1 kmh - -
Humidity 93% 93% 92% 93%
Pressure 29.75 in1007.5 mb 29.76 in1007.8 mb 29.73 in1006.8 mb -
Hour Temp Dew Point Humidity Winds Wind Gusts Pressure Precip Precip Rate Daily Precip Total
05:15 AM 32.7°F0.4°C 30.9°F-0.6°C 93% Calm Calm -- 29.75 in1007.5 mb 0.06 in1.5 mm 0.00 in0.0 mm 0.10 in2.5 mm
05:10 AM 32.5°F0.3°C 30.7°F-0.7°C 93% Calm Calm 28.0 mph45.1 kmh 29.75 in1007.5 mb 0.06 in1.5 mm 0.00 in0.0 mm 0.10 in2.5 mm
05:05 AM 32.3°F0.2°C 30.5°F-0.8°C 93% Calm Calm -- 29.75 in1007.5 mb 0.06 in1.5 mm 0.00 in0.0 mm 0.10 in2.5 mm
05:00 AM 32.5°F0.3°C 30.7°F-0.7°C 93% Calm Calm -- 29.76 in1007.8 mb 0.06 in1.5 mm 0.00 in0.0 mm 0.10 in2.5 mm
04:55 AM 32.5°F0.3°C 30.7°F-0.7°C 93% Calm Calm -- 29.76 in1007.8 mb 0.06 in1.5 mm 0.00 in0.0 mm 0.10 in2.5 mm
04:50 AM 32.7°F0.4°C 30.9°F-0.6°C 93% Calm Calm -- 29.75 in1007.5 mb 0.06 in1.5 mm 0.00 in0.0 mm 0.10 in2.5 mm
04:45 AM 32.7°F0.4°C 30.9°F-0.6°C 93% Calm Calm -- 29.74 in1007.1 mb 0.08 in2.0 mm 0.24 in6.1 mm 0.10 in2.5 mm
04:40 AM 32.7°F0.4°C 30.9°F-0.6°C 93% Calm Calm -- 29.74 in1007.1 mb 0.06 in1.5 mm 0.00 in0.0 mm 0.08 in2.0 mm
04:35 AM 32.7°F0.4°C 30.9°F-0.6°C 93% Calm Calm -- 29.74 in1007.1 mb 0.06 in1.5 mm 0.00 in0.0 mm 0.08 in2.0 mm
04:30 AM 32.7°F0.4°C 30.9°F-0.6°C 93% Calm Calm -- 29.74 in1007.1 mb 0.06 in1.5 mm 0.00 in0.0 mm 0.08 in2.0 mm
04:25 AM 32.7°F0.4°C 30.9°F-0.6°C 93% Calm Calm -- 29.74 in1007.1 mb 0.06 in1.5 mm 0.00 in0.0 mm 0.08 in2.0 mm
04:20 AM 32.9°F0.5°C 31.1°F-0.5°C 93% Calm Calm -- 29.73 in1006.8 mb 0.06 in1.5 mm 0.00 in0.0 mm 0.08 in2.0 mm
04:15 AM 32.9°F0.5°C 31.1°F-0.5°C 93% Calm Calm -- 29.73 in1006.8 mb 0.06 in1.5 mm 0.00 in0.0 mm 0.08 in2.0 mm
04:10 AM 32.5°F0.3°C 30.7°F-0.7°C 93% Calm Calm -- 29.74 in1007.1 mb 0.06 in1.5 mm 0.00 in0.0 mm 0.08 in2.0 mm
04:05 AM 32.3°F0.2°C 30.5°F-0.8°C 93% Calm Calm -- 29.74 in1007.1 mb 0.06 in1.5 mm 0.24 in6.1 mm 0.08 in2.0 mm
04:00 AM 32.3°F0.2°C 30.5°F-0.8°C 93% Calm Calm -- 29.73 in1006.8 mb 0.04 in1.0 mm 0.00 in0.0 mm 0.06 in1.5 mm
03:55 AM 32.3°F0.2°C 30.5°F-0.8°C 93% Calm Calm -- 29.74 in1007.1 mb 0.04 in1.0 mm 0.00 in0.0 mm 0.06 in1.5 mm
03:50 AM 32.3°F0.2°C 30.5°F-0.8°C 93% Calm Calm -- 29.74 in1007.1 mb 0.04 in1.0 mm 0.24 in6.1 mm 0.06 in1.5 mm
03:45 AM 32.3°F0.2°C 30.5°F-0.8°C 93% Calm Calm -- 29.74 in1007.1 mb 0.02 in0.5 mm 0.00 in0.0 mm 0.04 in1.0 mm
03:40 AM 32.1°F0.1°C 30.3°F-0.9°C 93% Calm Calm -- 29.74 in1007.1 mb 0.04 in1.0 mm 0.00 in0.0 mm 0.04 in1.0 mm
03:35 AM 32.1°F0.1°C 30.3°F-0.9°C 93% Calm Calm -- 29.74 in1007.1 mb 0.04 in1.0 mm 0.00 in0.0 mm 0.04 in1.0 mm
03:30 AM 32.1°F0.1°C 30.3°F-0.9°C 93% Calm Calm -- 29.75 in1007.5 mb 0.04 in1.0 mm 0.24 in6.1 mm 0.04 in1.0 mm
03:25 AM 32.1°F0.1°C 30.3°F-0.9°C 93% Calm Calm -- 29.74 in1007.1 mb 0.02 in0.5 mm 0.00 in0.0 mm 0.02 in0.5 mm
03:20 AM 32.3°F0.2°C 30.5°F-0.8°C 93% Calm Calm -- 29.74 in1007.1 mb 0.02 in0.5 mm 0.00 in0.0 mm 0.02 in0.5 mm
03:15 AM 32.5°F0.3°C 30.7°F-0.7°C 93% Calm Calm -- 29.74 in1007.1 mb 0.02 in0.5 mm 0.00 in0.0 mm 0.02 in0.5 mm
03:10 AM 32.7°F0.4°C 30.9°F-0.6°C 93% Calm Calm -- 29.74 in1007.1 mb 0.02 in0.5 mm 0.00 in0.0 mm 0.02 in0.5 mm
03:05 AM 32.7°F0.4°C 30.9°F-0.6°C 93% Calm Calm -- 29.74 in1007.1 mb 0.02 in0.5 mm 0.00 in0.0 mm 0.02 in0.5 mm
03:00 AM 32.7°F0.4°C 30.9°F-0.6°C 93% Calm Calm -- 29.74 in1007.1 mb 0.02 in0.5 mm 0.00 in0.0 mm 0.02 in0.5 mm
02:55 AM 32.7°F0.4°C 30.9°F-0.6°C 93% Calm Calm -- 29.74 in1007.1 mb 0.02 in0.5 mm 0.00 in0.0 mm 0.02 in0.5 mm
02:50 AM 32.7°F0.4°C 30.9°F-0.6°C 93% Calm Calm -- 29.74 in1007.1 mb 0.02 in0.5 mm 0.00 in0.0 mm 0.02 in0.5 mm
02:45 AM 32.7°F0.4°C 30.9°F-0.6°C 93% Calm Calm -- 29.74 in1007.1 mb 0.02 in0.5 mm 0.24 in6.1 mm 0.02 in0.5 mm
02:40 AM 32.5°F0.3°C 30.7°F-0.7°C 93% Calm Calm -- 29.74 in1007.1 mb 0.00 in0.0 mm 0.00 in0.0 mm 0.00 in0.0 mm
02:35 AM 32.7°F0.4°C 30.9°F-0.6°C 93% Calm Calm -- 29.74 in1007.1 mb 0.00 in0.0 mm 0.00 in0.0 mm 0.00 in0.0 mm
02:30 AM 32.7°F0.4°C 30.9°F-0.6°C 93% Calm Calm -- 29.74 in1007.1 mb 0.00 in0.0 mm 0.00 in0.0 mm 0.00 in0.0 mm
02:25 AM 32.7°F0.4°C 30.9°F-0.6°C 93% Calm Calm -- 29.74 in1007.1 mb 0.00 in0.0 mm 0.00 in0.0 mm 0.00 in0.0 mm
02:20 AM 32.7°F0.4°C 30.9°F-0.6°C 93% Calm Calm -- 29.74 in1007.1 mb 0.00 in0.0 mm 0.00 in0.0 mm 0.00 in0.0 mm
02:15 AM 32.7°F0.4°C 30.9°F-0.6°C 93% Calm Calm -- 29.74 in1007.1 mb 0.00 in0.0 mm 0.00 in0.0 mm 0.00 in0.0 mm
02:10 AM 32.7°F0.4°C 30.9°F-0.6°C 93% Calm Calm -- 29.73 in1006.8 mb 0.00 in0.0 mm 0.00 in0.0 mm 0.00 in0.0 mm
02:05 AM 32.7°F0.4°C 30.9°F-0.6°C 93% Calm Calm -- 29.74 in1007.1 mb 0.00 in0.0 mm 0.00 in0.0 mm 0.00 in0.0 mm
02:00 AM 32.5°F0.3°C 30.7°F-0.7°C 93% Calm Calm -- 29.74 in1007.1 mb 0.00 in0.0 mm 0.00 in0.0 mm 0.00 in0.0 mm
01:55 AM 32.5°F0.3°C 30.7°F-0.7°C 93% Calm Calm -- 29.74 in1007.1 mb 0.00 in0.0 mm 0.00 in0.0 mm 0.00 in0.0 mm
01:50 AM 32.5°F0.3°C 30.7°F-0.7°C 93% Calm Calm -- 29.74 in1007.1 mb 0.00 in0.0 mm 0.00 in0.0 mm 0.00 in0.0 mm
01:45 AM 32.5°F0.3°C 30.7°F-0.7°C 93% Calm Calm -- 29.74 in1007.1 mb 0.00 in0.0 mm 0.00 in0.0 mm 0.00 in0.0 mm
01:40 AM 32.3°F0.2°C 30.5°F-0.8°C 93% Calm Calm -- 29.74 in1007.1 mb 0.00 in0.0 mm 0.00 in0.0 mm 0.00 in0.0 mm
01:35 AM 32.5°F0.3°C 30.7°F-0.7°C 93% Calm Calm -- 29.74 in1007.1 mb 0.00 in0.0 mm 0.00 in0.0 mm 0.00 in0.0 mm
01:30 AM 32.3°F0.2°C 30.5°F-0.8°C 93% Calm Calm -- 29.74 in1007.1 mb 0.00 in0.0 mm 0.00 in0.0 mm 0.00 in0.0 mm
01:25 AM 32.3°F0.2°C 30.5°F-0.8°C 93% Calm Calm -- 29.73 in1006.8 mb 0.00 in0.0 mm 0.00 in0.0 mm 0.00 in0.0 mm
01:20 AM 32.3°F0.2°C 30.5°F-0.8°C 93% Calm Calm -- 29.74 in1007.1 mb 0.00 in0.0 mm 0.00 in0.0 mm 0.00 in0.0 mm
01:15 AM 32.3°F0.2°C 30.5°F-0.8°C 93% Calm Calm -- 29.74 in1007.1 mb 0.00 in0.0 mm 0.00 in0.0 mm 0.00 in0.0 mm
01:10 AM 32.3°F0.2°C 30.5°F-0.8°C 93% Calm Calm -- 29.73 in1006.8 mb 0.00 in0.0 mm 0.00 in0.0 mm 0.00 in0.0 mm
01:05 AM 32.3°F0.2°C 30.5°F-0.8°C 93% Calm Calm -- 29.74 in1007.1 mb 0.00 in0.0 mm 0.00 in0.0 mm 0.00 in0.0 mm
01:00 AM 32.3°F0.2°C 30.5°F-0.8°C 93% Calm Calm -- 29.74 in1007.1 mb 0.00 in0.0 mm 0.00 in0.0 mm 0.00 in0.0 mm
12:55 AM 32.1°F0.1°C 30.3°F-0.9°C 93% Calm Calm -- 29.74 in1007.1 mb 0.00 in0.0 mm 0.00 in0.0 mm 0.00 in0.0 mm
12:50 AM 32.1°F0.1°C 30.3°F-0.9°C 93% Calm Calm -- 29.75 in1007.5 mb 0.00 in0.0 mm 0.00 in0.0 mm 0.00 in0.0 mm
12:45 AM 32.1°F0.1°C 30.3°F-0.9°C 93% Calm Calm -- 29.75 in1007.5 mb 0.00 in0.0 mm 0.00 in0.0 mm 0.00 in0.0 mm
12:40 AM 32.1°F0.1°C 30.1°F-1.1°C 92% Calm Calm -- 29.74 in1007.1 mb 0.00 in0.0 mm 0.00 in0.0 mm 0.00 in0.0 mm
12:35 AM 32.0°F0.0°C 29.9°F-1.2°C 92% Calm Calm -- 29.75 in1007.5 mb 0.00 in0.0 mm 0.00 in0.0 mm 0.00 in0.0 mm
12:30 AM 31.8°F-0.1°C 29.7°F-1.3°C 92% Calm Calm -- 29.76 in1007.8 mb 0.00 in0.0 mm 0.00 in0.0 mm 0.00 in0.0 mm
12:25 AM 31.8°F-0.1°C 29.7°F-1.3°C 92% Calm Calm -- 29.75 in1007.5 mb 0.00 in0.0 mm 0.00 in0.0 mm 0.00 in0.0 mm
12:20 AM 31.8°F-0.1°C 29.7°F-1.3°C 92% Calm Calm -- 29.75 in1007.5 mb 0.00 in0.0 mm 0.00 in0.0 mm 0.00 in0.0 mm
12:15 AM 31.8°F-0.1°C 29.7°F-1.3°C 92% Calm Calm -- 29.75 in1007.5 mb 0.00 in0.0 mm 0.00 in0.0 mm 0.00 in0.0 mm
12:10 AM 31.8°F-0.1°C 29.7°F-1.3°C 92% Calm Calm -- 29.75 in1007.5 mb 0.00 in0.0 mm 0.00 in0.0 mm 0.00 in0.0 mm
12:05 AM 31.8°F-0.1°C 29.7°F-1.3°C 92% Calm Calm -- 29.76 in1007.8 mb 0.00 in0.0 mm 0.00 in0.0 mm 0.00 in0.0 mm
12:00 AM 31.8°F-0.1°C 29.7°F-1.3°C 92% Calm Calm -- 29.75 in1007.5 mb 0.00 in0.0 mm 0.00 in0.0 mm 0.00 in0.0 mm